createdAt,value
2022-11-03T00:01:51.507Z,89.97
2022-11-03T00:06:43.189Z,90.87
2022-11-03T00:09:15.151Z,90.87
2022-11-03T00:11:47.686Z,91.03
2022-11-03T00:14:18.946Z,91.07
2022-11-03T00:16:49.758Z,88.93
2022-11-03T00:19:22.798Z,88.93
2022-11-03T00:21:53.322Z,90.39
2022-11-03T00:24:23.921Z,90.94
2022-11-03T00:26:55.188Z,91.53
2022-11-03T00:29:25.533Z,91.53
2022-11-03T00:31:56.041Z,92.14
2022-11-03T00:34:26.587Z,92.14
2022-11-03T00:36:58.230Z,92.38
2022-11-03T00:39:28.741Z,92.39
2022-11-03T00:41:59.002Z,92.40
2022-11-03T00:44:29.504Z,92.40
2022-11-03T00:47:01.164Z,92.03
2022-11-03T00:49:31.554Z,92.29
2022-11-03T00:52:03.125Z,92.16
2022-11-03T00:54:33.878Z,92.15
2022-11-03T00:57:04.284Z,92.15
2022-11-03T00:59:34.932Z,91.79
2022-11-03T01:02:05.482Z,92.34
2022-11-03T01:04:35.854Z,92.59
2022-11-03T01:07:06.747Z,91.95
2022-11-03T01:09:41.622Z,92.23
2022-11-03T01:12:17.832Z,91.86
2022-11-03T01:14:53.529Z,91.86
2022-11-03T01:17:28.437Z,91.81
2022-11-03T01:19:58.722Z,91.49
2022-11-03T01:22:28.947Z,91.49
2022-11-03T01:24:59.622Z,91.59
2022-11-03T01:27:30.260Z,91.45
2022-11-03T01:30:00.644Z,91.33
2022-11-03T01:32:31.282Z,90.72
2022-11-03T01:35:01.543Z,90.56
2022-11-03T01:37:34.135Z,90.56
2022-11-03T01:40:04.593Z,89.43
2022-11-03T01:42:36.606Z,89.36
2022-11-03T01:45:07.305Z,89.36
2022-11-03T01:47:39.691Z,89.15
2022-11-03T01:50:13.280Z,88.90
2022-11-03T01:52:50.784Z,88.90
2022-11-03T01:55:23.971Z,88.04
2022-11-03T01:58:21.524Z,87.64
2022-11-03T02:01:13.103Z,87.52
2022-11-03T02:03:55.537Z,87.52
2022-11-03T02:06:28.324Z,87.25
2022-11-03T02:09:07.672Z,87.52
2022-11-03T02:11:38.982Z,87.47
2022-11-03T02:14:16.639Z,87.93
2022-11-03T02:16:49.799Z,88.58
2022-11-03T02:19:28.767Z,88.65
2022-11-03T02:22:25.558Z,88.83
2022-11-03T02:25:22.358Z,90.00
2022-11-03T02:27:52.980Z,90.00
2022-11-03T02:30:23.373Z,91.01
2022-11-03T02:32:58.159Z,90.39
2022-11-03T02:35:42.870Z,90.41
2022-11-03T02:38:16.396Z,90.97
2022-11-03T02:40:49.696Z,91.23
2022-11-03T02:43:22.533Z,90.52
2022-11-03T02:45:55.657Z,90.52
2022-11-03T02:48:26.375Z,90.61
2022-11-03T02:50:56.609Z,90.61
2022-11-03T02:53:30.826Z,90.32
2022-11-03T02:56:07.735Z,90.32
2022-11-03T02:59:13.646Z,90.96
2022-11-03T03:01:50.483Z,91.75
2022-11-03T03:04:44.483Z,91.18
2022-11-03T03:07:41.445Z,91.18
2022-11-03T03:10:20.471Z,91.24
2022-11-03T03:12:56.808Z,91.11
2022-11-03T03:15:47.932Z,89.63
2022-11-03T03:18:32.990Z,89.63
2022-11-03T03:21:15.295Z,89.56
2022-11-03T03:24:00.207Z,89.40
2022-11-03T03:26:36.470Z,88.18
2022-11-03T03:29:24.730Z,88.12
2022-11-03T03:31:57.986Z,87.91
2022-11-03T03:34:35.029Z,87.91
2022-11-03T03:37:07.455Z,87.83
2022-11-03T03:39:42.333Z,88.09
2022-11-03T03:42:15.214Z,88.49
2022-11-03T03:44:49.877Z,88.50
2022-11-03T03:50:22.541Z,88.72
2022-11-03T03:53:05.387Z,88.26
2022-11-03T03:55:41.513Z,87.60
2022-11-03T03:58:14.370Z,87.60
2022-11-03T04:00:45.323Z,87.93
2022-11-03T04:03:21.278Z,87.93
2022-11-03T04:05:53.672Z,88.04
2022-11-03T04:08:26.882Z,88.04
2022-11-03T04:10:57.210Z,86.99
2022-11-03T04:13:27.465Z,86.01
2022-11-03T04:15:59.666Z,86.01
2022-11-03T04:18:30.575Z,86.09
2022-11-03T04:21:01.323Z,84.43
2022-11-03T04:23:32.008Z,84.09
2022-11-03T04:26:02.422Z,84.09
2022-11-03T04:28:33.120Z,83.73
2022-11-03T04:31:05.739Z,83.73
2022-11-03T04:33:37.109Z,80.58
2022-11-03T04:36:13.547Z,80.58
2022-11-03T04:38:45.410Z,82.31
2022-11-03T04:41:27.666Z,82.01
2022-11-03T04:43:58.624Z,83.08
2022-11-03T04:46:31.386Z,83.04
2022-11-03T04:49:04.368Z,84.99
2022-11-03T04:51:35.873Z,84.76
2022-11-03T04:54:09.186Z,84.97
2022-11-03T04:56:41.436Z,85.37
2022-11-03T04:59:14.382Z,85.90
2022-11-03T05:01:55.725Z,85.37
2022-11-03T05:04:22.193Z,85.27
2022-11-03T05:06:54.203Z,84.80
2022-11-03T05:09:30.094Z,84.90
2022-11-03T05:12:03.095Z,84.99
2022-11-03T05:14:34.252Z,84.99
2022-11-03T05:17:13.440Z,84.48
2022-11-03T05:20:04.912Z,83.87
2022-11-03T05:22:37.772Z,83.87
2022-11-03T05:25:29.036Z,82.95
2022-11-03T05:28:06.754Z,82.36
2022-11-03T05:33:36.941Z,80.56
2022-11-03T05:36:10.452Z,80.53
2022-11-03T05:38:41.653Z,78.33
2022-11-03T05:41:23.827Z,78.46
2022-11-03T05:44:03.241Z,78.46
2022-11-03T05:46:35.572Z,81.07
2022-11-03T05:49:07.937Z,81.60
2022-11-03T05:51:41.345Z,81.60
2022-11-03T05:54:26.321Z,79.90
2022-11-03T05:57:09.797Z,80.76
2022-11-03T05:59:40.074Z,81.23
2022-11-03T06:02:31.456Z,80.15
2022-11-03T06:05:03.508Z,80.66
2022-11-03T06:07:35.591Z,80.66
2022-11-03T06:10:17.817Z,79.82
2022-11-03T06:12:48.146Z,78.53
2022-11-03T06:15:28.347Z,78.21
2022-11-03T06:18:17.346Z,78.44
2022-11-03T06:20:58.714Z,77.19
2022-11-03T06:23:32.127Z,78.60
2022-11-03T06:26:04.501Z,78.55
2022-11-03T06:28:42.201Z,79.09
2022-11-03T06:31:28.411Z,78.62
2022-11-03T06:34:00.981Z,78.44
2022-11-03T06:36:34.777Z,76.90
2022-11-03T06:39:16.346Z,78.14
2022-11-03T06:41:48.832Z,77.67
2022-11-03T06:44:29.376Z,77.47
2022-11-03T06:47:05.613Z,77.57
2022-11-03T06:49:38.138Z,77.91
2022-11-03T06:58:25.665Z,78.74
2022-11-03T07:06:56.822Z,75.07
2022-11-03T07:08:44.677Z,75.07
2022-11-03T07:24:44.174Z,68.54
2022-11-03T07:24:50.895Z,73.09
2022-11-03T07:27:34.598Z,69.90
2022-11-03T07:30:22.770Z,69.90
2022-11-03T07:32:59.757Z,69.56
2022-11-03T07:35:53.667Z,72.40
2022-11-03T07:41:28.124Z,72.04
2022-11-03T07:44:04.579Z,73.11
2022-11-03T07:46:35.555Z,72.19
2022-11-03T07:49:13.233Z,72.19
2022-11-03T07:51:47.833Z,73.08
2022-11-03T07:54:32.850Z,70.90
2022-11-03T07:57:15.346Z,67.59
2022-11-03T07:59:48.531Z,66.51
2022-11-03T08:02:43.516Z,69.35
2022-11-03T08:05:14.013Z,68.34
2022-11-03T08:07:46.958Z,64.22
2022-11-03T08:10:27.411Z,65.84
2022-11-03T08:12:57.930Z,66.03
2022-11-03T08:15:30.605Z,60.76
2022-11-03T08:18:05.717Z,60.22
2022-11-03T08:20:40.174Z,59.93
2022-11-03T08:23:25.313Z,61.79
2022-11-03T08:25:47.655Z,61.47
2022-11-03T08:28:27.057Z,62.47
2022-11-03T08:31:00.890Z,61.85
2022-11-03T08:36:01.499Z,60.36
2022-11-03T08:38:32.357Z,60.04
2022-11-03T08:41:02.727Z,60.04
2022-11-03T08:43:34.603Z,59.28
2022-11-03T08:46:15.426Z,59.28
2022-11-03T08:48:37.919Z,58.13
2022-11-03T08:51:09.765Z,58.13
2022-11-03T08:53:46.681Z,56.11
2022-11-03T08:56:22.613Z,57.05
2022-11-03T08:58:53.657Z,59.88
2022-11-03T09:01:25.436Z,59.36
2022-11-03T09:03:56.592Z,57.48
2022-11-03T09:06:29.219Z,56.69
2022-11-03T09:11:36.267Z,54.59
2022-11-03T09:14:06.514Z,55.69
2022-11-03T09:16:37.082Z,55.60
2022-11-03T09:19:08.131Z,57.62
2022-11-03T09:21:38.573Z,57.62
2022-11-03T09:24:10.871Z,56.33
2022-11-03T09:26:42.643Z,56.58
2022-11-03T09:29:13.235Z,54.27
2022-11-03T09:31:45.173Z,52.77
2022-11-03T09:34:18.209Z,47.99
2022-11-03T09:36:53.206Z,50.33
2022-11-03T09:39:21.169Z,53.31
2022-11-03T09:41:58.743Z,52.59
2022-11-03T09:44:41.525Z,47.95
2022-11-03T09:47:13.619Z,50.12
2022-11-03T09:49:45.228Z,46.15
2022-11-03T09:52:19.748Z,42.78
2022-11-03T09:54:54.642Z,42.78
2022-11-03T09:57:28.115Z,43.20
2022-11-03T10:00:01.398Z,48.05
2022-11-03T10:02:37.571Z,46.10
2022-11-03T10:08:06.033Z,48.33
2022-11-03T10:10:37.131Z,48.33
2022-11-03T10:13:09.855Z,48.19
2022-11-03T10:15:43.561Z,46.32
2022-11-03T10:21:09.116Z,45.66
2022-11-03T10:23:41.123Z,45.96
2022-11-03T10:26:18.274Z,46.69
2022-11-03T10:29:03.722Z,48.79
2022-11-03T10:31:40.508Z,48.79
2022-11-03T10:34:35.243Z,48.55
2022-11-03T10:37:33.588Z,48.62
2022-11-03T10:40:22.380Z,54.22
2022-11-03T10:42:46.611Z,50.14
2022-11-03T10:45:19.836Z,50.14
2022-11-03T10:48:11.387Z,52.81
2022-11-03T10:50:42.140Z,52.81
2022-11-03T10:53:16.069Z,50.50
2022-11-03T10:55:49.595Z,49.76
2022-11-03T10:58:20.451Z,49.76
2022-11-03T11:00:51.724Z,49.19
2022-11-03T11:03:23.588Z,49.19
2022-11-03T11:05:53.913Z,49.92
2022-11-03T11:08:24.720Z,48.07
2022-11-03T11:10:55.798Z,48.47
2022-11-03T11:13:28.398Z,47.28
2022-11-03T11:16:01.571Z,47.59
2022-11-03T11:18:35.892Z,46.67
2022-11-03T11:21:19.647Z,46.67
2022-11-03T11:23:53.139Z,46.49
2022-11-03T11:26:32.446Z,47.05
2022-11-03T11:29:14.693Z,48.37
2022-11-03T11:31:57.770Z,47.27
2022-11-03T11:34:45.046Z,48.23
2022-11-03T11:37:32.607Z,47.84
2022-11-03T11:40:01.521Z,48.95
2022-11-03T11:42:37.902Z,49.04
2022-11-03T11:45:19.299Z,49.04
2022-11-03T11:47:48.659Z,50.27
2022-11-03T11:50:25.989Z,50.27
2022-11-03T11:53:10.829Z,48.33
2022-11-03T11:56:01.841Z,48.33
2022-11-03T11:58:50.009Z,48.92
2022-11-03T12:01:24.193Z,48.92
2022-11-03T12:03:58.518Z,49.20
2022-11-03T12:06:40.515Z,49.20
2022-11-03T12:09:22.561Z,50.63
2022-11-03T12:11:57.262Z,50.24
2022-11-03T12:14:31.458Z,50.24
2022-11-03T12:17:20.577Z,51.13
2022-11-03T12:19:54.794Z,52.60
2022-11-03T12:22:32.724Z,52.03
2022-11-03T12:25:04.297Z,53.09
2022-11-03T12:27:38.159Z,53.45
2022-11-03T12:30:19.814Z,53.45
2022-11-03T12:33:05.008Z,55.02
2022-11-03T12:35:52.932Z,54.86
2022-11-03T12:41:42.040Z,53.86
2022-11-03T12:44:13.459Z,52.69
2022-11-03T12:46:46.310Z,52.07
2022-11-03T12:49:18.875Z,52.24
2022-11-03T12:51:49.294Z,51.81
2022-11-03T12:54:21.266Z,51.46
2022-11-03T12:56:54.293Z,52.06
2022-11-03T12:59:28.699Z,52.03
2022-11-03T13:02:02.242Z,51.79
2022-11-03T13:04:37.845Z,52.39
2022-11-03T13:07:09.751Z,52.53
2022-11-03T13:09:48.807Z,52.49
2022-11-03T13:12:27.873Z,52.56
2022-11-03T13:15:03.115Z,52.34
2022-11-03T13:17:59.687Z,52.98
2022-11-03T13:22:46.777Z,57.33
2022-11-03T13:25:17.316Z,59.33
2022-11-03T13:27:47.641Z,60.29
2022-11-03T13:30:19.268Z,60.29
2022-11-03T13:32:50.001Z,60.45
2022-11-03T13:35:20.853Z,63.57
2022-11-03T13:37:51.299Z,66.50
2022-11-03T13:42:53.861Z,69.22
2022-11-03T13:45:24.783Z,66.90
2022-11-03T13:48:37.540Z,64.81
2022-11-03T13:50:31.705Z,65.47
2022-11-03T13:55:42.997Z,66.87
2022-11-03T14:00:47.655Z,65.41
2022-11-03T14:05:51.755Z,69.48
2022-11-03T14:08:22.024Z,73.43
2022-11-03T14:10:52.405Z,73.07
2022-11-03T14:13:23.364Z,73.07
2022-11-03T14:15:53.948Z,79.25
2022-11-03T14:18:24.582Z,79.79
2022-11-03T14:20:55.304Z,81.54
2022-11-03T14:23:28.735Z,80.75
2022-11-03T14:26:13.240Z,80.89
2022-11-03T14:28:32.692Z,81.68
2022-11-03T14:31:10.427Z,81.86
2022-11-03T14:33:45.771Z,83.25
2022-11-03T14:36:22.377Z,83.59
2022-11-03T14:38:56.062Z,84.94
2022-11-03T14:41:30.383Z,84.42
2022-11-03T14:44:39.072Z,86.30
2022-11-03T14:46:59.464Z,85.76
2022-11-03T14:49:43.673Z,86.21
2022-11-03T14:52:14.880Z,86.88
2022-11-03T14:54:51.769Z,86.88
2022-11-03T14:57:32.064Z,86.94
2022-11-03T15:03:39.419Z,88.36
2022-11-03T15:06:17.463Z,88.36
2022-11-03T15:08:45.601Z,91.90
2022-11-03T15:11:32.731Z,91.55
2022-11-03T15:13:53.937Z,91.93
2022-11-03T15:19:24.395Z,93.64
2022-11-03T15:25:27.212Z,94.46
2022-11-03T15:28:01.808Z,95.63
2022-11-03T15:30:53.054Z,96.36
2022-11-03T15:33:23.722Z,96.73
2022-11-03T15:37:36.902Z,96.73
2022-11-03T15:38:35.995Z,99.05
2022-11-03T15:41:19.072Z,100.00
2022-11-03T15:43:52.705Z,100.00
2022-11-03T15:46:33.596Z,100.00
2022-11-03T15:49:04.217Z,100.00
2022-11-03T15:51:52.979Z,100.00
2022-11-03T15:54:14.830Z,100.00
2022-11-03T15:56:46.764Z,100.00
2022-11-03T15:59:39.307Z,100.00
2022-11-03T16:25:25.608Z,100.00
2022-11-03T16:28:27.550Z,100.00
2022-11-03T16:53:36.288Z,100.00
2022-11-03T16:56:09.695Z,100.00
2022-11-03T16:58:41.502Z,99.82
2022-11-03T17:01:14.325Z,100.00
2022-11-03T17:04:01.840Z,99.73
2022-11-03T17:25:08.202Z,94.81
2022-11-03T17:28:37.528Z,94.11
2022-11-03T17:31:21.643Z,93.68
2022-11-03T17:33:57.812Z,93.68
2022-11-03T17:36:32.411Z,94.26
2022-11-03T17:39:05.687Z,92.52
2022-11-03T17:41:58.911Z,92.56
2022-11-03T17:44:30.250Z,92.56
2022-11-03T17:47:04.836Z,92.92
2022-11-03T17:49:40.474Z,93.38
2022-11-03T17:52:30.227Z,92.32
2022-11-03T17:55:04.211Z,93.32
2022-11-03T17:57:36.829Z,93.32
2022-11-03T18:00:13.473Z,93.51
2022-11-03T18:02:57.864Z,94.20
2022-11-03T18:05:35.722Z,94.22
2022-11-03T18:08:12.544Z,93.75
2022-11-03T18:32:21.577Z,94.85
2022-11-03T18:39:47.607Z,94.79
2022-11-03T18:42:27.109Z,96.23
2022-11-03T18:45:19.074Z,96.13
2022-11-03T18:47:53.504Z,96.53
2022-11-03T18:50:45.371Z,96.95
2022-11-03T18:53:19.237Z,96.95
2022-11-03T18:55:56.561Z,95.82
2022-11-03T18:58:32.170Z,95.82
2022-11-03T19:01:03.517Z,97.04
2022-11-03T19:03:37.171Z,96.24
2022-11-03T19:06:09.197Z,96.24
2022-11-03T19:12:03.437Z,94.17
2022-11-03T19:14:50.956Z,94.16
2022-11-03T19:17:24.913Z,94.16
2022-11-03T19:19:55.663Z,94.17
2022-11-03T19:24:08.571Z,94.08
2022-11-03T19:25:11.026Z,93.96
2022-11-03T19:30:38.311Z,93.70
2022-11-03T19:33:14.491Z,94.33
2022-11-03T19:35:45.445Z,94.33
2022-11-03T19:38:26.852Z,94.75
2022-11-03T19:40:56.911Z,95.86
2022-11-03T19:43:33.322Z,95.50
2022-11-03T19:46:01.483Z,95.54
2022-11-03T19:48:35.420Z,95.45
2022-11-03T19:51:06.863Z,95.29
2022-11-03T19:53:44.471Z,95.82
2022-11-03T19:56:13.335Z,95.47
2022-11-03T19:58:43.780Z,94.76
2022-11-03T20:01:14.212Z,94.76
2022-11-03T20:03:45.770Z,95.87
2022-11-03T20:06:24.682Z,95.66
2022-11-03T20:08:59.162Z,95.92
2022-11-03T20:11:29.832Z,95.92
2022-11-03T20:14:01.153Z,96.09
2022-11-03T20:16:34.843Z,98.28
2022-11-03T20:19:08.207Z,99.83
2022-11-03T20:21:40.552Z,99.95
2022-11-03T20:24:15.896Z,100.00
2022-11-03T20:26:47.376Z,100.00
2022-11-03T20:29:18.691Z,100.00
2022-11-03T20:31:49.459Z,100.00
2022-11-03T20:34:19.963Z,100.00
2022-11-03T20:42:43.641Z,99.97
2022-11-03T20:45:17.147Z,99.62
2022-11-03T20:47:48.529Z,99.62
2022-11-03T20:50:20.724Z,99.64
2022-11-03T20:52:53.137Z,99.64
2022-11-03T20:55:34.119Z,99.86
2022-11-03T20:58:09.509Z,100.00
2022-11-03T21:00:42.818Z,99.21
2022-11-03T21:03:53.483Z,98.63
2022-11-03T21:06:00.263Z,98.58
2022-11-03T21:08:32.909Z,98.58
2022-11-03T21:11:05.311Z,97.74
2022-11-03T21:13:38.819Z,97.74
2022-11-03T21:16:23.951Z,97.04
2022-11-03T21:18:44.544Z,96.80
2022-11-03T21:21:20.722Z,96.83
2022-11-03T21:23:48.691Z,96.55
2022-11-03T21:26:19.375Z,96.31
2022-11-03T21:28:50.519Z,96.31
2022-11-03T21:31:21.187Z,96.31
2022-11-03T21:33:53.035Z,96.07
2022-11-03T21:36:24.206Z,96.07
2022-11-03T21:38:57.025Z,95.65
2022-11-03T21:41:28.980Z,95.82
2022-11-03T21:44:00.373Z,95.85
2022-11-03T21:46:30.845Z,95.85
2022-11-03T21:49:02.701Z,94.66
2022-11-03T21:51:33.286Z,95.24
2022-11-03T21:54:03.679Z,95.24
2022-11-03T21:56:34.609Z,96.14
2022-11-03T21:59:06.876Z,96.37
2022-11-03T22:01:41.006Z,96.32
2022-11-03T22:04:13.592Z,95.83
2022-11-03T22:06:44.022Z,94.57
2022-11-03T22:12:09.944Z,94.10
2022-11-03T22:14:40.566Z,93.72
2022-11-03T22:17:14.622Z,93.72
2022-11-03T22:19:47.016Z,94.13
2022-11-03T22:22:17.295Z,94.28
2022-11-03T22:24:48.350Z,93.55
2022-11-03T22:27:18.671Z,93.68
2022-11-03T22:29:51.578Z,93.66
2022-11-03T22:32:23.281Z,93.78
2022-11-03T22:34:57.311Z,94.00
2022-11-03T22:39:59.888Z,93.92
2022-11-03T22:42:32.869Z,93.54
2022-11-03T22:45:03.162Z,93.54
2022-11-03T22:47:34.105Z,93.77
2022-11-03T22:50:05.568Z,93.32
2022-11-03T22:52:38.685Z,93.24
2022-11-03T22:55:10.473Z,93.58
2022-11-03T22:57:40.784Z,93.83
2022-11-03T23:00:15.447Z,94.48
2022-11-03T23:02:45.890Z,94.29
2022-11-03T23:05:16.180Z,94.29
2022-11-03T23:07:46.870Z,94.36
2022-11-03T23:10:17.256Z,94.55
2022-11-03T23:12:50.787Z,94.61
2022-11-03T23:15:22.495Z,95.05
2022-11-03T23:17:53.367Z,95.28
2022-11-03T23:20:23.658Z,94.82
2022-11-03T23:22:54.187Z,95.38
2022-11-03T23:25:24.536Z,95.15
2022-11-03T23:27:55.323Z,96.07
2022-11-03T23:30:25.459Z,96.07
2022-11-03T23:32:55.588Z,96.22
2022-11-03T23:35:27.164Z,95.74
2022-11-03T23:37:59.107Z,94.88
2022-11-03T23:40:32.064Z,95.12
2022-11-03T23:43:03.500Z,95.37
2022-11-03T23:45:39.296Z,96.02
2022-11-03T23:48:10.125Z,96.19
2022-11-03T23:50:42.166Z,95.83
2022-11-03T23:53:12.563Z,95.85
2022-11-03T23:55:42.821Z,95.45
2022-11-03T23:58:13.436Z,94.97
